Time;durP1;ratioP1;P1;durP2;ratioP2;P2;SDS_P1;SDS_P2;PMS_P1;PMS_P2;Temp;Humidity;BMP_temperature;BMP_pressure;BME280_temperature;BME280_humidity;BME280_pressure;Samples;Min_cycle;Max_cycle;Signal;HPM_P1;HPM_P2
2023/03/12 00:02:12;;;;;;;7.47;0.98;;;;;;;2.44;62.65;99938.84;5097726;28;20119;-66
2023/03/12 00:04:37;;;;;;;3.00;0.50;;;;;;;2.51;60.84;99939.81;5096404;28;20058;-65
2023/03/12 00:07:05;;;;;;;2.65;0.45;;;;;;;2.49;58.98;99949.78;5096362;28;20128;-65
2023/03/12 00:09:33;;;;;;;4.68;0.50;;;;;;;2.51;58.38;99934.50;5096274;28;20167;-65
2023/03/12 00:11:59;;;;;;;3.08;0.60;;;;;;;2.46;58.82;99958.91;5097616;28;20024;-65
2023/03/12 00:14:24;;;;;;;4.32;0.85;;;;;;;2.48;57.53;99946.28;5096557;28;20032;-65
2023/03/12 00:16:50;;;;;;;4.10;0.50;;;;;;;2.46;58.13;99972.19;5098097;28;20078;-66
2023/03/12 00:19:15;;;;;;;5.85;0.57;;;;;;;2.48;58.43;99946.28;5096974;28;20028;-65
2023/03/12 00:21:40;;;;;;;4.40;0.82;;;;;;;2.36;58.31;99958.25;5096659;28;20032;-65
2023/03/12 00:24:07;;;;;;;2.08;0.50;;;;;;;2.46;59.45;99958.09;5091345;28;20081;-65
2023/03/12 00:26:32;;;;;;;5.97;0.80;;;;;;;2.37;59.06;99972.38;5093516;28;20111;-66
2023/03/12 00:28:57;;;;;;;5.68;0.65;;;;;;;2.06;60.24;99883.63;5093551;28;20028;-65
2023/03/12 00:31:26;;;;;;;5.28;0.90;;;;;;;2.08;59.42;99934.69;5092591;28;20028;-66
2023/03/12 00:33:53;;;;;;;5.47;1.27;;;;;;;2.35;59.82;99962.75;5095067;28;20028;-66
2023/03/12 00:36:23;;;;;;;4.72;0.70;;;;;;;2.31;60.61;99977.31;5096073;28;20024;-65
2023/03/12 00:38:49;;;;;;;3.30;0.60;;;;;;;2.61;61.92;99969.69;5095595;28;20036;-65
2023/03/12 00:41:14;;;;;;;5.40;0.98;;;;;;;2.33;59.70;99972.69;5095912;28;20030;-65
2023/03/12 00:43:40;;;;;;;2.50;0.80;;;;;;;2.11;59.39;99933.53;5093251;28;20528;-65
2023/03/12 00:46:06;;;;;;;4.13;0.80;;;;;;;2.23;58.24;99987.13;5094375;28;20036;-66
2023/03/12 00:48:31;;;;;;;3.65;0.50;;;;;;;2.30;58.42;99978.34;5095106;28;20027;-66
2023/03/12 00:50:56;;;;;;;3.70;0.85;;;;;;;2.34;57.63;99963.72;5097416;28;20545;-66
2023/03/12 00:53:22;;;;;;;5.20;0.68;;;;;;;2.32;59.04;99952.47;5095642;28;20058;-66
2023/03/12 00:55:47;;;;;;;2.22;0.55;;;;;;;2.32;57.57;99973.69;5096890;28;20104;-65
2023/03/12 00:58:13;;;;;;;5.25;0.55;;;;;;;2.42;58.96;99993.91;5095615;28;20742;-66
2023/03/12 01:00:38;;;;;;;2.00;0.40;;;;;;;2.33;57.49;99987.78;5078827;28;20134;-65
2023/03/12 01:03:04;;;;;;;1.67;0.40;;;;;;;2.28;57.35;99977.66;5097709;28;20451;-66
2023/03/12 01:05:30;;;;;;;5.50;0.47;;;;;;;2.45;59.78;99989.13;5096473;28;20048;-66
2023/03/12 01:07:56;;;;;;;4.25;0.52;;;;;;;2.38;58.53;99995.25;5095615;28;20028;-66
2023/03/12 01:10:21;;;;;;;4.47;0.45;;;;;;;2.25;56.71;99985.13;5095979;28;20435;-66
2023/03/12 01:12:47;;;;;;;3.90;0.82;;;;;;;2.21;57.86;99989.09;5078891;28;20039;-66
2023/03/12 01:15:15;;;;;;;3.38;0.73;;;;;;;2.06;56.32;99994.25;5095520;28;20170;-66
2023/03/12 01:17:41;;;;;;;6.68;1.27;;;;;;;2.04;56.93;100010.31;5094321;28;20391;-65
2023/03/12 01:20:07;;;;;;;7.35;0.70;;;;;;;2.05;57.69;99996.09;5093842;28;20115;-66
2023/03/12 01:22:34;;;;;;;3.97;0.70;;;;;;;2.03;57.76;100005.19;5090520;28;20398;-66
2023/03/12 01:24:59;;;;;;;3.33;0.50;;;;;;;2.32;57.08;100013.53;5091146;28;20016;-65
2023/03/12 01:27:24;;;;;;;3.08;0.90;;;;;;;2.06;58.25;100007.53;5092688;28;20463;-66
2023/03/12 01:29:50;;;;;;;6.68;1.10;;;;;;;2.25;60.35;100001.06;5095969;28;20032;-66
2023/03/12 01:32:16;;;;;;;8.23;1.00;;;;;;;2.29;61.78;100039.56;5095642;28;20053;-66
2023/03/12 01:34:42;;;;;;;2.22;0.40;;;;;;;2.06;58.90;100020.78;5096593;28;20051;-66
2023/03/12 01:37:07;;;;;;;5.32;0.70;;;;;;;2.14;59.43;100028.75;5097053;28;20032;-66
2023/03/12 01:39:33;;;;;;;6.38;1.00;;;;;;;2.10;59.54;100033.56;5095146;28;20035;-65
2023/03/12 01:41:59;;;;;;;5.15;1.00;;;;;;;2.09;59.74;100052.31;5095795;28;20032;-66
2023/03/12 01:44:24;;;;;;;5.70;1.15;;;;;;;1.70;57.59;99996.34;5082216;28;20460;-66
2023/03/12 01:46:50;;;;;;;3.42;0.80;;;;;;;1.92;59.57;100054.09;5099352;28;20024;-66
2023/03/12 01:49:26;;;;;;;6.85;1.00;;;;;;;1.94;58.06;100043.31;5100002;28;20019;-66
2023/03/12 01:51:55;;;;;;;3.42;0.88;;;;;;;1.97;59.70;100057.06;5101408;28;20079;-66
2023/03/12 01:54:35;;;;;;;8.52;1.23;;;;;;;1.90;58.62;100052.59;5100738;28;20031;-66
2023/03/12 01:57:03;;;;;;;5.78;0.85;;;;;;;1.95;60.97;100047.63;5096286;28;20024;-65
2023/03/12 01:59:39;;;;;;;4.05;0.80;;;;;;;2.18;61.72;100061.94;5098797;28;20058;-65
2023/03/12 02:02:06;;;;;;;2.10;0.40;;;;;;;1.96;58.92;100059.91;5096770;28;20020;-66
2023/03/12 02:04:32;;;;;;;8.38;0.60;;;;;;;2.12;59.08;100067.91;5100264;28;20040;-66
2023/03/12 02:07:04;;;;;;;4.47;1.00;;;;;;;2.03;57.65;100082.13;5097764;28;20036;-65
2023/03/12 02:09:32;;;;;;;3.47;0.60;;;;;;;2.07;58.90;100081.66;5099392;28;20016;-65
2023/03/12 02:11:58;;;;;;;4.85;0.63;;;;;;;2.02;58.57;100097.25;5100508;28;20473;-65
2023/03/12 02:14:23;;;;;;;4.53;0.93;;;;;;;1.96;59.14;100070.53;5097424;28;20055;-65
2023/03/12 02:16:50;;;;;;;2.90;0.63;;;;;;;1.98;59.94;100087.91;5100021;28;20234;-66
2023/03/12 02:19:26;;;;;;;4.57;0.85;;;;;;;2.01;59.10;100086.75;5099014;28;20032;-65
2023/03/12 02:21:51;;;;;;;4.10;0.70;;;;;;;1.99;58.43;100088.78;5093637;28;20024;-66
2023/03/12 02:24:39;;;;;;;3.72;0.80;;;;;;;1.90;57.13;100097.69;5078371;28;20390;-65
2023/03/12 02:27:06;;;;;;;4.18;0.70;;;;;;;1.91;56.58;100070.97;5097640;28;20016;-65
2023/03/12 02:29:34;;;;;;;3.72;0.98;;;;;;;1.55;54.20;100054.44;5099557;28;20497;-65
2023/03/12 02:32:03;;;;;;;2.78;0.55;;;;;;;2.01;57.42;100086.75;5098503;28;20024;-66
2023/03/12 02:34:29;;;;;;;4.78;0.57;;;;;;;2.04;58.11;100095.22;5101209;28;20036;-66
2023/03/12 02:36:54;;;;;;;1.42;0.38;;;;;;;2.07;58.36;100102.06;5100580;28;20045;-66
2023/03/12 02:39:20;;;;;;;6.10;1.20;;;;;;;1.82;57.35;100099.31;5096601;28;20032;-66
2023/03/12 02:41:52;;;;;;;6.75;1.10;;;;;;;1.96;58.70;100124.41;5096360;28;20028;-65
2023/03/12 02:44:21;;;;;;;2.92;0.73;;;;;;;1.70;54.34;100105.06;5096360;28;20456;-65
2023/03/12 02:46:49;;;;;;;3.35;0.40;;;;;;;2.01;55.09;100115.94;5099305;28;20020;-65
2023/03/12 02:49:18;;;;;;;3.60;0.90;;;;;;;1.88;55.57;100095.19;5098750;28;20099;-65
2023/03/12 02:51:44;;;;;;;2.75;0.40;;;;;;;1.98;55.29;100118.94;5099352;28;20035;-66
2023/03/12 02:54:11;;;;;;;4.15;0.80;;;;;;;1.95;57.47;100121.91;5099455;28;20123;-66
2023/03/12 02:56:37;;;;;;;4.90;1.05;;;;;;;1.78;58.03;100100.59;5098447;28;20028;-65
2023/03/12 02:59:04;;;;;;;2.95;0.50;;;;;;;1.59;56.26;100098.19;5096240;28;20200;-65
2023/03/12 03:01:32;;;;;;;4.63;0.80;;;;;;;1.77;54.72;100137.91;5099484;28;20031;-65
2023/03/12 03:03:59;;;;;;;3.90;0.85;;;;;;;1.71;56.98;100114.69;5099859;28;20024;-65
2023/03/12 03:06:25;;;;;;;3.65;0.80;;;;;;;1.67;56.59;100122.13;5098663;28;20028;-66
2023/03/12 03:08:50;;;;;;;4.32;0.90;;;;;;;1.67;58.26;100143.34;5079829;28;20512;-66
2023/03/12 03:11:16;;;;;;;6.60;1.25;;;;;;;1.55;56.79;100142.75;5097821;28;20035;-66
2023/03/12 03:13:41;;;;;;;5.68;0.85;;;;;;;1.59;57.94;100156.53;5099092;28;20055;-66
2023/03/12 03:16:07;;;;;;;3.97;1.10;;;;;;;1.56;58.45;100152.41;5097225;28;20206;-66
2023/03/12 03:18:32;;;;;;;4.43;0.90;;;;;;;1.73;58.41;100128.63;5095380;28;20483;-66
2023/03/12 03:21:01;;;;;;;5.15;0.60;;;;;;;1.77;57.84;100145.88;5078644;28;20039;-66
2023/03/12 03:23:26;;;;;;;8.43;0.80;;;;;;;1.83;57.27;100167.28;5095527;28;20052;-65
2023/03/12 03:25:53;;;;;;;4.65;0.80;;;;;;;1.88;57.47;100180.06;5075925;28;20556;-66
2023/03/12 03:28:20;;;;;;;5.65;0.70;;;;;;;1.83;57.29;100175.25;5105222;28;20080;-65
2023/03/12 03:30:46;;;;;;;7.30;1.13;;;;;;;1.87;56.76;100175.75;5110902;28;20036;-65
2023/03/12 03:33:11;;;;;;;2.63;0.63;;;;;;;1.65;56.51;100169.16;5112029;28;20030;-67
2023/03/12 03:35:37;;;;;;;4.53;0.90;;;;;;;1.35;56.52;100144.78;5111111;28;20026;-65
2023/03/12 03:38:03;;;;;;;4.50;0.68;;;;;;;1.51;54.18;100175.06;5097877;28;20418;-65
2023/03/12 03:40:28;;;;;;;6.28;0.43;;;;;;;1.73;56.20;100187.78;5096842;28;20095;-65
2023/03/12 03:42:54;;;;;;;3.65;0.45;;;;;;;1.63;54.85;100187.91;5094247;28;20039;-66
2023/03/12 03:45:20;;;;;;;5.68;0.60;;;;;;;1.80;56.00;100196.78;5096597;28;20078;-66
2023/03/12 03:47:45;;;;;;;5.03;0.75;;;;;;;1.61;57.35;100181.91;5098566;28;20510;-65
2023/03/12 03:50:11;;;;;;;5.80;1.30;;;;;;;1.51;58.99;100190.97;5100780;28;20056;-65
2023/03/12 03:52:37;;;;;;;6.22;0.80;;;;;;;1.70;57.03;100193.41;5097475;28;20040;-66
2023/03/12 03:55:03;;;;;;;3.33;0.57;;;;;;;1.58;56.28;100184.03;5099311;28;20070;-66
2023/03/12 03:57:28;;;;;;;5.13;1.20;;;;;;;1.46;57.09;100186.13;5096130;28;20028;-66
2023/03/12 03:59:54;;;;;;;4.75;1.00;;;;;;;1.56;58.55;100201.94;5095953;28;20036;-66
2023/03/12 04:02:20;;;;;;;6.53;1.27;;;;;;;1.55;56.85;100182.53;5097555;28;20083;-66
2023/03/12 04:04:46;;;;;;;5.63;1.02;;;;;;;1.60;57.52;100196.16;5096307;28;20111;-66
2023/03/12 04:07:12;;;;;;;3.30;0.57;;;;;;;1.60;56.86;100222.69;5077888;28;20039;-65
2023/03/12 04:09:37;;;;;;;3.88;1.05;;;;;;;1.50;57.58;100199.91;5097511;28;20031;-66
2023/03/12 04:12:03;;;;;;;2.92;0.80;;;;;;;1.37;54.75;100202.97;5098374;28;20035;-66
2023/03/12 04:14:28;;;;;;;4.65;0.85;;;;;;;1.53;56.38;100216.34;5079897;28;20093;-65
2023/03/12 04:16:53;;;;;;;4.68;0.90;;;;;;;1.64;56.33;100217.91;5096435;28;20031;-65
2023/03/12 04:19:19;;;;;;;5.45;1.05;;;;;;;1.52;54.40;100219.13;5096698;28;20111;-65
2023/03/12 04:21:44;;;;;;;5.43;1.02;;;;;;;1.47;53.79;100218.78;5096717;28;20035;-65
2023/03/12 04:24:15;;;;;;;4.60;0.75;;;;;;;1.30;54.77;100193.97;5097431;28;20030;-66
2023/03/12 04:26:40;;;;;;;4.57;0.80;;;;;;;1.47;54.96;100210.81;5097481;28;20024;-65
2023/03/12 04:29:05;;;;;;;9.52;1.60;;;;;;;1.45;55.69;100221.56;5096189;28;20024;-66
2023/03/12 04:31:31;;;;;;;5.63;0.93;;;;;;;1.51;56.57;100238.69;5094958;28;20047;-66
2023/03/12 04:33:56;;;;;;;8.25;1.05;;;;;;;1.59;56.28;100209.56;5095244;28;20292;-65
2023/03/12 04:36:22;;;;;;;6.95;0.73;;;;;;;1.51;58.04;100212.19;5093368;28;20036;-66
2023/03/12 04:38:48;;;;;;;4.45;0.80;;;;;;;1.38;56.88;100207.28;5096547;28;20032;-65
2023/03/12 04:41:14;;;;;;;5.97;0.70;;;;;;;1.68;55.69;100219.25;5096377;28;20434;-66
2023/03/12 04:43:40;;;;;;;5.10;0.82;;;;;;;1.62;55.06;100235.78;5094929;28;20036;-66
2023/03/12 04:46:07;;;;;;;4.82;0.50;;;;;;;1.55;56.92;100218.81;5096239;28;20070;-65
2023/03/12 04:48:33;;;;;;;4.80;0.85;;;;;;;1.54;57.04;100243.69;5095661;28;20055;-66
2023/03/12 04:50:59;;;;;;;4.88;0.98;;;;;;;1.69;56.38;100225.38;5094905;28;20062;-67
2023/03/12 04:53:24;;;;;;;6.13;1.15;;;;;;;1.48;56.42;100241.66;5095905;28;20488;-65
2023/03/12 04:55:50;;;;;;;5.80;0.93;;;;;;;1.39;56.40;100220.38;5096468;28;20090;-66
2023/03/12 04:58:16;;;;;;;6.30;1.15;;;;;;;1.50;57.54;100242.34;5093843;28;20028;-65
2023/03/12 05:00:42;;;;;;;5.35;0.85;;;;;;;1.53;58.00;100247.34;5078577;28;20024;-66
2023/03/12 05:03:08;;;;;;;5.05;0.60;;;;;;;1.47;57.04;100253.25;5095490;28;20119;-65
2023/03/12 05:05:34;;;;;;;5.78;1.20;;;;;;;1.39;55.47;100254.00;5094917;28;20391;-65
2023/03/12 05:08:00;;;;;;;2.70;0.57;;;;;;;1.40;55.42;100240.59;5096882;28;20032;-65
2023/03/12 05:10:25;;;;;;;4.55;0.57;;;;;;;1.68;56.15;100261.69;5092810;28;20501;-65
2023/03/12 05:12:51;;;;;;;7.88;0.77;;;;;;;1.82;58.13;100239.91;5075164;28;20032;-65
2023/03/12 05:15:16;;;;;;;7.75;1.13;;;;;;;1.50;57.67;100250.28;5096660;28;20024;-65
2023/03/12 05:17:43;;;;;;;3.95;0.63;;;;;;;1.54;55.59;100264.91;5099546;28;20056;-65
2023/03/12 05:20:09;;;;;;;3.65;0.57;;;;;;;1.50;54.53;100272.34;5099441;28;20092;-66
2023/03/12 05:22:35;;;;;;;5.15;0.85;;;;;;;1.52;53.82;100266.84;5100193;28;20020;-65
2023/03/12 05:25:02;;;;;;;2.88;0.40;;;;;;;1.70;55.10;100272.97;5082752;28;20113;-66
2023/03/12 05:27:27;;;;;;;4.13;0.80;;;;;;;1.57;56.27;100269.91;5099459;28;20052;-66
2023/03/12 05:29:53;;;;;;;4.18;0.73;;;;;;;1.55;54.55;100285.94;5100102;28;20020;-65
2023/03/12 05:32:18;;;;;;;3.60;0.70;;;;;;;1.49;53.94;100286.59;5100864;28;20049;-66
2023/03/12 05:34:44;;;;;;;4.68;1.00;;;;;;;1.33;55.54;100283.78;5097361;28;20031;-65
2023/03/12 05:37:09;;;;;;;2.95;0.60;;;;;;;1.48;55.21;100276.13;5096097;28;20031;-66
2023/03/12 05:39:35;;;;;;;3.05;0.57;;;;;;;1.51;55.09;100291.72;5098072;28;20032;-66
2023/03/12 05:42:00;;;;;;;2.42;0.43;;;;;;;1.35;53.40;100295.88;5099118;28;20119;-65
2023/03/12 05:44:26;;;;;;;5.43;0.47;;;;;;;1.48;52.96;100294.66;5097881;28;20065;-66
2023/03/12 05:46:52;;;;;;;2.22;0.30;;;;;;;1.50;53.43;100301.50;5099792;28;20032;-65
2023/03/12 05:49:20;;;;;;;4.93;0.77;;;;;;;1.55;53.94;100303.69;5098772;28;20028;-66
2023/03/12 05:51:46;;;;;;;2.13;0.52;;;;;;;1.51;54.41;100289.06;5100080;28;20375;-65
2023/03/12 05:54:12;;;;;;;3.92;0.80;;;;;;;1.57;53.17;100302.53;5080931;28;20425;-66
2023/03/12 05:56:37;;;;;;;1.58;0.50;;;;;;;1.62;53.48;100310.88;5098844;28;20023;-65
2023/03/12 05:59:03;;;;;;;3.65;0.63;;;;;;;1.49;53.21;100309.59;5099258;28;20036;-65
2023/03/12 06:01:29;;;;;;;5.07;0.73;;;;;;;1.58;55.29;100296.25;5099874;28;20031;-65
2023/03/12 06:03:55;;;;;;;3.92;0.60;;;;;;;1.56;52.59;100284.16;5099080;28;20352;-65
2023/03/12 06:06:22;;;;;;;3.00;0.70;;;;;;;1.58;52.75;100298.91;5099573;28;20028;-66
2023/03/12 06:08:47;;;;;;;5.07;0.68;;;;;;;1.82;53.32;100295.63;5100158;28;20020;-65
2023/03/12 06:11:13;;;;;;;3.10;0.77;;;;;;;1.61;52.67;100287.97;5098692;28;20380;-65
2023/03/12 06:13:39;;;;;;;5.50;1.10;;;;;;;1.67;54.46;100315.72;5095759;28;20463;-65
2023/03/12 06:16:17;;;;;;;4.30;0.70;;;;;;;1.61;53.22;100309.19;5096091;28;20028;-65
2023/03/12 06:18:42;;;;;;;3.95;0.75;;;;;;;1.63;54.54;100303.75;5095228;28;20044;-66
2023/03/12 06:21:07;;;;;;;4.25;0.85;;;;;;;1.67;52.36;100302.47;5099093;28;20028;-66
2023/03/12 06:23:33;;;;;;;5.05;0.77;;;;;;;1.71;54.00;100311.75;5098547;28;20502;-65
2023/03/12 06:25:58;;;;;;;5.00;0.70;;;;;;;1.84;52.56;100316.69;5097872;28;20028;-66
2023/03/12 06:28:24;;;;;;;2.67;0.57;;;;;;;1.75;53.66;100297.19;5096719;28;20034;-66
2023/03/12 06:30:52;;;;;;;3.13;0.70;;;;;;;1.79;53.82;100316.31;5098885;28;20114;-66
2023/03/12 06:33:17;;;;;;;4.90;0.63;;;;;;;1.77;53.56;100324.41;5101986;28;20032;-67
2023/03/12 06:35:44;;;;;;;3.75;1.00;;;;;;;2.10;53.72;100325.47;5105696;28;20623;-66
2023/03/12 06:38:10;;;;;;;3.35;0.50;;;;;;;1.82;54.02;100300.94;5102348;28;20032;-67
2023/03/12 06:40:35;;;;;;;1.63;0.28;;;;;;;2.22;53.55;100335.81;5080940;28;20051;-65
2023/03/12 06:43:00;;;;;;;5.18;0.63;;;;;;;2.15;52.25;100321.53;5100870;28;20658;-68
2023/03/12 06:45:26;;;;;;;1.65;0.30;;;;;;;2.08;53.35;100332.75;5099969;28;20032;-66
2023/03/12 06:47:51;;;;;;;1.95;0.30;;;;;;;2.16;54.09;100324.03;5081837;28;20028;-66
2023/03/12 06:50:17;;;;;;;3.22;0.40;;;;;;;1.98;53.34;100328.53;5097635;28;20045;-63
2023/03/12 06:52:42;;;;;;;1.80;0.32;;;;;;;2.24;53.91;100337.34;5102207;28;20032;-64
2023/03/12 06:55:08;;;;;;;2.22;0.40;;;;;;;2.25;53.10;100328.41;5097372;28;20115;-64
2023/03/12 06:57:33;;;;;;;1.10;0.25;;;;;;;2.21;51.93;100332.34;5096349;28;20032;-66
2023/03/12 06:59:59;;;;;;;4.85;0.50;;;;;;;2.33;53.59;100331.09;5079492;28;20134;-66
2023/03/12 07:02:24;;;;;;;3.22;0.55;;;;;;;2.31;53.24;100311.00;5094707;28;20082;-65
2023/03/12 07:04:49;;;;;;;1.88;0.47;;;;;;;2.07;53.75;100307.22;5079955;28;20024;-65
2023/03/12 07:07:15;;;;;;;4.72;0.60;;;;;;;2.42;52.50;100339.09;5096267;28;20047;-64
2023/03/12 07:09:41;;;;;;;4.47;0.40;;;;;;;2.57;53.67;100343.66;5096995;28;20028;-64
2023/03/12 07:12:07;;;;;;;1.75;0.40;;;;;;;2.38;52.11;100346.53;5096648;28;20022;-64
2023/03/12 07:14:33;;;;;;;1.95;0.63;;;;;;;2.32;52.62;100350.69;5079497;28;20051;-65
2023/03/12 07:17:00;;;;;;;3.03;0.70;;;;;;;2.28;53.92;100336.03;5096830;28;20044;-64
2023/03/12 07:19:28;;;;;;;3.42;0.40;;;;;;;2.51;51.95;100365.53;5097003;28;20024;-65
2023/03/12 07:21:54;;;;;;;1.92;0.43;;;;;;;2.55;52.05;100360.75;5096804;28;20395;-65
2023/03/12 07:24:19;;;;;;;0.65;0.20;;;;;;;2.47;52.01;100358.06;5096484;28;20020;-65
2023/03/12 07:26:45;;;;;;;2.15;0.47;;;;;;;2.53;52.32;100352.13;5097603;28;20024;-65
2023/03/12 07:29:10;;;;;;;1.50;0.43;;;;;;;2.51;53.24;100356.75;5097553;28;20032;-66
2023/03/12 07:31:36;;;;;;;3.05;0.40;;;;;;;2.83;52.21;100359.56;5093664;28;20047;-65
2023/03/12 07:34:01;;;;;;;3.78;0.47;;;;;;;2.93;52.54;100359.44;5094164;28;20365;-65
2023/03/12 07:36:28;;;;;;;2.15;0.30;;;;;;;2.63;53.04;100323.63;5096985;28;20027;-65
2023/03/12 07:38:54;;;;;;;5.47;0.50;;;;;;;3.04;53.03;100356.47;5097922;28;20394;-65
2023/03/12 07:41:19;;;;;;;5.05;0.50;;;;;;;2.42;51.49;100321.38;5095440;28;20028;-65
2023/03/12 07:43:45;;;;;;;3.65;0.55;;;;;;;2.49;50.29;100356.09;5095723;28;20032;-65
2023/03/12 07:46:11;;;;;;;3.10;0.40;;;;;;;2.65;52.12;100360.63;5096630;28;20028;-65
2023/03/12 07:48:37;;;;;;;4.38;0.43;;;;;;;2.43;52.43;100364.69;5095502;28;20107;-65
2023/03/12 07:51:03;;;;;;;3.63;0.50;;;;;;;2.32;51.79;100353.34;5097055;28;20525;-66
2023/03/12 07:53:29;;;;;;;2.90;0.52;;;;;;;2.35;49.53;100357.47;5097742;28;20428;-65
2023/03/12 07:55:54;;;;;;;4.75;0.60;;;;;;;2.32;50.24;100369.28;5101081;28;20028;-65
2023/03/12 07:58:19;;;;;;;1.98;0.30;;;;;;;2.67;52.26;100370.13;5095981;28;20091;-65
2023/03/12 08:00:45;;;;;;;1.58;0.30;;;;;;;2.91;51.06;100379.19;5096428;28;20348;-65
2023/03/12 08:03:11;;;;;;;1.88;0.28;;;;;;;2.71;51.45;100375.94;5102127;28;20053;-65
2023/03/12 08:05:37;;;;;;;2.25;0.20;;;;;;;2.65;51.85;100366.81;5101624;28;20027;-65
2023/03/12 08:08:03;;;;;;;3.33;0.55;;;;;;;2.60;51.40;100379.72;5098130;28;20020;-65
2023/03/12 08:10:28;;;;;;;1.10;0.20;;;;;;;2.89;50.76;100373.22;5096513;28;20111;-65
2023/03/12 08:12:54;;;;;;;1.08;0.20;;;;;;;2.70;50.47;100377.75;5101947;28;20039;-65
2023/03/12 08:15:19;;;;;;;4.00;0.50;;;;;;;2.81;49.79;100372.19;5101842;28;20277;-65
2023/03/12 08:17:44;;;;;;;3.30;0.40;;;;;;;2.91;50.97;100379.19;5100042;28;20051;-65
2023/03/12 08:20:10;;;;;;;3.92;0.70;;;;;;;2.80;50.64;100373.16;5102354;28;20398;-65
2023/03/12 08:22:37;;;;;;;3.05;0.68;;;;;;;2.82;49.85;100370.38;5103064;28;20023;-65
2023/03/12 08:25:03;;;;;;;2.20;0.32;;;;;;;2.62;49.46;100364.47;5102115;28;20149;-66
2023/03/12 08:27:29;;;;;;;2.67;0.28;;;;;;;2.68;51.29;100370.94;5083988;28;20035;-65
2023/03/12 08:29:54;;;;;;;4.75;0.60;;;;;;;2.92;50.61;100371.06;5101847;28;20028;-65
2023/03/12 08:32:20;;;;;;;5.47;0.70;;;;;;;2.89;51.54;100367.91;5101780;28;20028;-65
2023/03/12 08:34:45;;;;;;;5.07;0.77;;;;;;;2.85;52.37;100379.81;5083562;28;20051;-65
2023/03/12 08:37:10;;;;;;;3.05;0.47;;;;;;;2.86;51.19;100378.84;5102417;28;20028;-65
2023/03/12 08:39:36;;;;;;;3.25;0.40;;;;;;;2.76;49.95;100366.50;5104966;28;20470;-65
2023/03/12 08:42:02;;;;;;;2.00;0.50;;;;;;;2.80;50.47;100370.50;5098271;28;20402;-65
2023/03/12 08:44:28;;;;;;;2.65;0.50;;;;;;;2.87;50.28;100377.84;5102742;28;20020;-65
2023/03/12 08:46:53;;;;;;;3.97;0.50;;;;;;;2.65;48.49;100361.50;5097162;28;20035;-63
2023/03/12 08:49:20;;;;;;;4.40;0.47;;;;;;;2.74;49.27;100378.28;5096394;28;20027;-65
2023/03/12 08:51:45;;;;;;;1.25;0.40;;;;;;;2.80;49.06;100385.63;5097154;28;20024;-64
2023/03/12 08:54:11;;;;;;;2.15;0.28;;;;;;;2.86;50.40;100394.78;5100474;28;20501;-65
2023/03/12 08:56:40;;;;;;;3.28;0.43;;;;;;;3.11;50.95;100385.06;5114042;28;20023;-65
2023/03/12 08:59:06;;;;;;;4.07;0.52;;;;;;;3.15;48.67;100389.94;5112507;28;20471;-65
2023/03/12 09:01:32;;;;;;;2.47;0.30;;;;;;;3.35;48.62;100389.66;5100217;28;20119;-65
2023/03/12 09:03:57;;;;;;;1.20;0.35;;;;;;;3.32;49.12;100388.16;5124365;28;20032;-65
2023/03/12 09:06:22;;;;;;;3.10;0.30;;;;;;;3.39;49.86;100396.31;5099541;28;20034;-66
2023/03/12 09:08:50;;;;;;;3.25;0.70;;;;;;;3.22;49.55;100390.94;5113456;28;20080;-66
2023/03/12 09:11:16;;;;;;;4.05;0.50;;;;;;;3.28;51.84;100392.97;5110119;27;20031;-66
2023/03/12 09:13:42;;;;;;;5.70;0.63;;;;;;;3.19;49.80;100380.63;5115316;28;20035;-66
2023/03/12 09:16:07;;;;;;;3.17;0.40;;;;;;;3.28;49.89;100384.97;5105342;28;20020;-66
2023/03/12 09:18:34;;;;;;;2.40;0.25;;;;;;;3.04;50.05;100374.25;5114006;28;20044;-65
2023/03/12 09:21:00;;;;;;;3.42;0.30;;;;;;;3.43;48.53;100400.28;5115569;28;20032;-65
2023/03/12 09:23:26;;;;;;;1.35;0.32;;;;;;;3.50;48.45;100399.47;5109787;28;20062;-66
2023/03/12 09:25:52;;;;;;;4.40;0.47;;;;;;;3.49;49.82;100397.00;5118723;28;20023;-66
2023/03/12 09:28:18;;;;;;;2.53;0.40;;;;;;;3.49;47.77;100403.13;5107816;28;20030;-67
2023/03/12 09:30:43;;;;;;;4.45;0.40;;;;;;;3.41;47.92;100378.34;5112759;28;20032;-66
2023/03/12 09:33:09;;;;;;;1.40;0.20;;;;;;;3.52;48.15;100396.66;5115757;28;20092;-66
2023/03/12 09:35:35;;;;;;;5.10;0.45;;;;;;;3.74;49.54;100395.19;5109149;28;20479;-66
2023/03/12 09:38:01;;;;;;;2.22;0.40;;;;;;;3.77;48.29;100384.22;5088682;28;20048;-66
2023/03/12 09:40:30;;;;;;;2.38;0.28;;;;;;;3.92;48.45;100387.06;5115183;28;20028;-66
2023/03/12 09:42:55;;;;;;;2.22;0.35;;;;;;;3.91;48.70;100393.41;5102035;28;20101;-65
2023/03/12 09:45:26;;;;;;;2.55;0.60;;;;;;;3.68;48.29;100372.75;5099855;28;20040;-65
2023/03/12 09:47:55;;;;;;;6.25;0.30;;;;;;;4.02;47.10;100384.25;5100571;28;20570;-65
2023/03/12 09:50:31;;;;;;;1.15;0.30;;;;;;;3.94;47.68;100390.38;5100086;28;20035;-65
2023/03/12 09:53:01;;;;;;;1.88;0.40;;;;;;;3.87;47.81;100390.19;5103707;28;20020;-65
2023/03/12 09:55:34;;;;;;;2.55;0.32;;;;;;;3.84;48.67;100389.69;5103991;28;20024;-65
2023/03/12 09:57:59;;;;;;;2.70;0.60;;;;;;;3.69;47.43;100387.72;5103334;28;20039;-65
2023/03/12 10:00:34;;;;;;;1.80;0.30;;;;;;;3.76;48.59;100385.22;5103104;28;20032;-65
2023/03/12 10:03:27;;;;;;;2.92;0.40;;;;;;;3.96;48.36;100385.72;5098980;28;20020;-65
2023/03/12 10:06:08;;;;;;;1.63;0.35;;;;;;;4.02;47.12;100382.41;5102549;28;20020;-65
2023/03/12 10:08:53;;;;;;;1.88;0.35;;;;;;;4.14;46.61;100391.72;5102370;28;20474;-65
2023/03/12 10:11:21;;;;;;;;;;;;;;;4.35;45.58;100387.69;5104312;28;20076;-65
2023/03/12 10:14:26;;;;;;;1.77;0.40;;;;;;;4.17;46.31;100394.06;5096180;28;20480;-65
2023/03/12 10:17:13;;;;;;;2.05;0.30;;;;;;;4.17;46.46;100386.06;5057110;28;20056;-65
2023/03/12 10:19:53;;;;;;;2.75;0.30;;;;;;;4.46;46.29;100384.66;5106091;28;20024;-65
2023/03/12 10:22:28;;;;;;;1.77;0.30;;;;;;;4.76;45.67;100383.09;5111869;28;20040;-65
2023/03/12 10:25:07;;;;;;;3.85;0.30;;;;;;;4.87;45.75;100384.59;5113153;28;20016;-65
2023/03/12 10:27:38;;;;;;;3.40;0.30;;;;;;;4.72;46.01;100368.44;5111488;28;20028;-66
2023/03/12 10:30:16;;;;;;;2.03;0.35;;;;;;;5.03;45.93;100392.47;5099762;28;20103;-65
2023/03/12 10:32:48;;;;;;;3.47;0.52;;;;;;;4.95;46.42;100392.53;5102451;28;20058;-65
2023/03/12 10:35:18;;;;;;;3.35;0.50;;;;;;;4.56;46.65;100366.66;5104612;28;20035;-65
2023/03/12 10:37:58;;;;;;;2.88;0.52;;;;;;;5.13;46.48;100406.47;5098724;28;20036;-65
2023/03/12 10:40:33;;;;;;;3.33;0.28;;;;;;;5.59;46.07;100401.19;5099706;28;20031;-66
2023/03/12 10:42:59;;;;;;;1.10;0.20;;;;;;;5.46;45.26;100410.78;5099563;28;20028;-65
2023/03/12 10:46:14;;;;;;;1.77;0.20;;;;;;;5.17;45.85;100417.63;5098868;28;20032;-65
2023/03/12 10:48:41;;;;;;;5.38;0.40;;;;;;;5.47;46.03;100413.31;5097586;28;20024;-65
2023/03/12 10:51:11;;;;;;;1.88;0.30;;;;;;;5.38;45.85;100407.16;5097594;28;20024;-65
2023/03/12 10:53:43;;;;;;;2.05;0.40;;;;;;;5.38;46.18;100417.84;5098695;28;20031;-65
2023/03/12 10:56:19;;;;;;;2.58;0.73;;;;;;;5.52;45.76;100418.09;5099521;28;20062;-65
2023/03/12 10:58:50;;;;;;;2.45;0.43;;;;;;;5.30;44.56;100425.91;5102954;28;20024;-65
2023/03/12 11:01:21;;;;;;;0.73;0.15;;;;;;;5.24;44.14;100417.75;5104121;28;20032;-65
2023/03/12 11:03:48;;;;;;;1.50;0.10;;;;;;;5.36;43.05;100424.34;5103069;28;20020;-65
2023/03/12 11:06:23;;;;;;;3.42;0.45;;;;;;;5.70;43.14;100420.50;5101897;28;20032;-66
2023/03/12 11:09:21;;;;;;;1.38;0.30;;;;;;;5.49;43.85;100424.59;5100715;28;20039;-66
2023/03/12 11:11:49;;;;;;;2.15;0.30;;;;;;;5.38;43.85;100403.66;5048708;28;20052;-66
2023/03/12 11:14:20;;;;;;;3.40;0.47;;;;;;;5.32;44.73;100428.38;5075883;28;20117;-65
2023/03/12 11:16:46;;;;;;;4.53;0.40;;;;;;;5.55;44.01;100420.41;5081703;28;20020;-65
2023/03/12 11:19:13;;;;;;;2.00;0.50;;;;;;;5.73;43.83;100420.13;5082630;28;20021;-65
2023/03/12 11:21:52;;;;;;;1.13;0.15;;;;;;;5.47;44.00;100423.97;5093891;28;20054;-67
2023/03/12 11:24:18;;;;;;;2.35;0.30;;;;;;;5.46;45.11;100430.28;5102685;28;20034;-66
2023/03/12 11:26:55;;;;;;;2.58;0.45;;;;;;;5.60;44.93;100429.56;5099825;28;20091;-66
2023/03/12 11:29:38;;;;;;;2.53;0.40;;;;;;;6.11;43.88;100439.75;5103766;28;20429;-66
2023/03/12 11:32:32;;;;;;;4.47;0.45;;;;;;;5.97;45.02;100417.34;5103937;28;20023;-65
2023/03/12 11:34:58;;;;;;;2.17;0.30;;;;;;;6.20;43.91;100428.00;5105451;28;20099;-66
2023/03/12 11:37:26;;;;;;;2.08;0.30;;;;;;;5.66;44.27;100425.34;5102756;28;20027;-70